Time;durP1;ratioP1;P1;durP2;ratioP2;P2;SDS_P1;SDS_P2;PMS_P1;PMS_P2;Temp;Humidity;BMP_temperature;BMP_pressure;BME280_temperature;BME280_humidity;BME280_pressure;Samples;Min_cycle;Max_cycle;Signal;HPM_P1;HPM_P2
2021/08/15 21:40:30;;;;;;;8.27;4.95;;;;;;;20.45;57.83;99532.63;5028766;27;1329598;-65
2021/08/15 21:42:55;;;;;;;7.65;4.70;;;;;;;20.45;58.55;99535.34;5047140;27;105865;-64
2021/08/15 21:45:22;;;;;;;8.55;4.95;;;;;;;20.48;58.94;99541.31;5046275;27;105716;-64
2021/08/15 21:47:47;;;;;;;11.40;5.30;;;;;;;20.50;59.41;99529.16;5044782;27;105897;-64
2021/08/15 21:50:13;;;;;;;10.20;4.97;;;;;;;20.56;59.58;99530.06;5045977;27;106099;-64
2021/08/15 21:52:38;;;;;;;9.02;4.90;;;;;;;20.58;59.85;99528.72;5046283;27;105838;-64
2021/08/15 21:55:04;;;;;;;13.38;5.15;;;;;;;20.62;60.04;99529.03;5045349;27;106318;-64
2021/08/15 21:57:30;;;;;;;7.05;4.57;;;;;;;20.67;60.13;99528.25;5044392;27;106782;-65
2021/08/15 21:59:56;;;;;;;7.22;4.90;;;;;;;20.68;60.22;99530.78;5026881;27;106185;-64
2021/08/15 22:02:21;;;;;;;9.50;5.22;;;;;;;20.71;60.28;99524.84;5046465;27;105863;-64
2021/08/15 22:04:46;;;;;;;9.48;5.05;;;;;;;20.73;60.23;99528.09;5045702;27;106146;-61
2021/08/15 22:07:12;;;;;;;8.57;5.53;;;;;;;20.71;60.11;99521.31;5043873;27;105995;-61
2021/08/15 22:09:41;;;;;;;11.40;5.40;;;;;;;20.70;60.16;99522.41;5043175;27;106237;-64
2021/08/15 22:12:07;;;;;;;8.97;5.27;;;;;;;20.65;60.46;99515.00;5043700;27;106166;-64
2021/08/15 22:14:33;;;;;;;8.38;4.95;;;;;;;20.60;60.56;99520.38;5044109;27;106373;-61
2021/08/15 22:17:00;;;;;;;11.38;5.63;;;;;;;20.55;60.45;99518.41;5014731;28;107609;-62
2021/08/15 22:19:25;;;;;;;9.98;6.03;;;;;;;20.51;60.94;99514.56;5024346;28;106539;-61
2021/08/15 22:21:51;;;;;;;13.10;5.60;;;;;;;20.46;60.89;99511.78;5024992;28;106023;-61
2021/08/15 22:24:16;;;;;;;8.23;5.60;;;;;;;20.42;61.12;99511.50;5024687;28;106239;-63
2021/08/15 22:26:41;;;;;;;9.02;6.28;;;;;;;20.40;61.04;99504.72;5024249;28;106792;-62
2021/08/15 22:29:09;;;;;;;8.10;5.45;;;;;;;20.37;61.43;99491.69;5024938;28;106030;-62
2021/08/15 22:31:35;;;;;;;9.30;6.05;;;;;;;20.35;61.47;99483.00;5025692;28;105732;-62
2021/08/15 22:34:09;;;;;;;8.50;5.85;;;;;;;20.33;61.57;99480.56;5025239;28;106074;-61
2021/08/15 22:36:34;;;;;;;9.55;5.25;;;;;;;20.32;61.43;99489.72;5024541;28;106084;-61
2021/08/15 22:39:00;;;;;;;9.25;5.25;;;;;;;20.31;61.70;99488.09;5024363;28;106589;-61
2021/08/15 22:41:25;;;;;;;8.63;5.90;;;;;;;20.28;61.66;99478.63;5025491;28;105890;-61
2021/08/15 22:43:50;;;;;;;8.57;5.43;;;;;;;20.25;61.68;99470.97;5025101;28;106176;-62
2021/08/15 22:46:16;;;;;;;8.30;5.60;;;;;;;20.27;61.88;99460.75;5024045;28;106160;-63
2021/08/15 22:48:42;;;;;;;7.75;5.40;;;;;;;20.29;61.79;99457.78;5023333;28;106274;-61
2021/08/15 22:51:07;;;;;;;9.40;6.18;;;;;;;20.29;61.91;99453.19;5015369;28;106022;-63
2021/08/15 22:53:32;;;;;;;7.80;5.57;;;;;;;20.32;62.15;99454.56;5011468;28;106459;-62
2021/08/15 22:55:58;;;;;;;9.02;5.75;;;;;;;20.34;62.15;99448.91;5010706;28;108868;-64
2021/08/15 22:58:23;;;;;;;8.88;6.72;;;;;;;20.37;62.29;99433.00;5011087;28;106043;-65
2021/08/15 23:00:49;;;;;;;9.25;5.95;;;;;;;20.39;62.32;99438.16;5011527;28;106002;-65
2021/08/15 23:03:14;;;;;;;10.23;5.70;;;;;;;20.39;62.35;99430.84;5011152;28;106433;-64
2021/08/15 23:05:40;;;;;;;12.07;5.63;;;;;;;20.41;62.46;99419.78;5010886;28;106192;-65
2021/08/15 23:08:06;;;;;;;9.75;6.13;;;;;;;20.43;62.43;99418.44;5009904;28;106486;-64
2021/08/15 23:10:32;;;;;;;10.88;6.35;;;;;;;20.43;62.36;99417.63;5011548;28;105945;-66
2021/08/15 23:12:57;;;;;;;8.50;5.88;;;;;;;20.42;62.35;99407.88;5010361;28;106163;-65
2021/08/15 23:15:23;;;;;;;10.93;5.72;;;;;;;20.42;62.44;99403.31;5010793;28;105998;-64
2021/08/15 23:17:48;;;;;;;13.27;6.07;;;;;;;20.41;62.44;99400.84;5016152;28;106157;-64
2021/08/15 23:20:15;;;;;;;8.88;5.97;;;;;;;20.40;62.47;99396.50;5021197;28;105774;-65
2021/08/15 23:22:41;;;;;;;8.80;6.13;;;;;;;20.38;62.70;99391.34;5020775;28;106117;-65
2021/08/15 23:25:07;;;;;;;12.55;7.28;;;;;;;20.38;62.69;99395.94;5018087;28;105980;-65
2021/08/15 23:27:34;;;;;;;11.20;5.80;;;;;;;20.38;62.72;99390.53;5026568;28;105968;-65
2021/08/15 23:29:59;;;;;;;8.80;5.78;;;;;;;20.37;62.98;99389.72;5031730;28;106030;-66
2021/08/15 23:32:24;;;;;;;13.90;6.38;;;;;;;20.37;63.16;99378.09;5030905;28;106223;-66
2021/08/15 23:34:50;;;;;;;11.95;7.03;;;;;;;20.35;63.08;99375.63;5030347;28;109019;-65
2021/08/15 23:37:15;;;;;;;10.32;6.30;;;;;;;20.35;63.08;99374.81;5030630;28;105893;-65
2021/08/15 23:39:40;;;;;;;9.52;6.07;;;;;;;20.33;63.31;99374.25;5030804;28;105961;-65
2021/08/15 23:42:06;;;;;;;9.30;5.97;;;;;;;20.32;63.47;99367.22;5030939;28;106114;-65
2021/08/15 23:44:32;;;;;;;8.55;6.40;;;;;;;20.30;63.36;99364.75;5030374;28;106616;-65
2021/08/15 23:46:58;;;;;;;7.90;6.35;;;;;;;20.28;63.31;99366.91;5030410;28;106234;-65
2021/08/15 23:49:23;;;;;;;9.98;6.28;;;;;;;20.25;63.43;99368.22;5030107;28;106293;-65
2021/08/15 23:51:48;;;;;;;9.77;6.82;;;;;;;20.20;63.59;99373.59;5030714;28;106120;-65
2021/08/15 23:54:14;;;;;;;10.90;5.88;;;;;;;20.15;63.60;99384.34;5030175;28;105912;-65
2021/08/15 23:56:39;;;;;;;10.85;5.70;;;;;;;20.06;63.43;99381.25;5030167;28;106140;-65
2021/08/15 23:59:05;;;;;;;10.43;5.78;;;;;;;20.00;63.71;99384.16;5018925;28;105828;-65
